createdAt,value
2017-07-29T00:00:29.583Z,89.50
2017-07-29T00:02:57.056Z,89.70
2017-07-29T00:05:24.531Z,89.30
2017-07-29T00:07:52.810Z,89.70
2017-07-29T00:10:21.026Z,89.30
2017-07-29T00:12:48.502Z,89.10
2017-07-29T00:15:15.977Z,89.30
2017-07-29T00:17:43.550Z,89.30
2017-07-29T00:20:11.056Z,89.50
2017-07-29T00:22:38.569Z,88.70
2017-07-29T00:25:06.027Z,88.80
2017-07-29T00:27:34.276Z,88.50
2017-07-29T00:30:01.750Z,89.00
2017-07-29T00:32:29.198Z,89.70
2017-07-29T00:34:56.667Z,90.20
2017-07-29T00:37:24.939Z,90.40
2017-07-29T00:39:52.409Z,90.40
2017-07-29T00:42:20.632Z,90.70
2017-07-29T00:44:48.115Z,90.60
2017-07-29T00:47:15.589Z,90.60
2017-07-29T00:49:43.815Z,90.80
2017-07-29T00:52:11.286Z,90.80
2017-07-29T00:54:38.752Z,90.70
2017-07-29T00:57:06.212Z,90.70
2017-07-29T00:59:33.678Z,90.60
2017-07-29T01:02:01.131Z,90.60
2017-07-29T01:04:28.608Z,90.40
2017-07-29T01:06:56.850Z,89.70
2017-07-29T01:09:24.317Z,89.70
2017-07-29T01:11:51.931Z,89.40
2017-07-29T01:14:19.456Z,90.00
2017-07-29T01:16:47.718Z,89.30
2017-07-29T01:19:15.277Z,89.30
2017-07-29T01:21:42.748Z,89.10
2017-07-29T01:24:10.972Z,88.00
2017-07-29T01:26:38.469Z,87.90
2017-07-29T01:29:06.725Z,88.30
2017-07-29T01:31:34.196Z,87.60
2017-07-29T01:34:01.663Z,87.20
2017-07-29T01:36:29.910Z,87.60
2017-07-29T01:38:57.398Z,87.00
2017-07-29T01:41:25.663Z,86.50
2017-07-29T01:43:53.131Z,86.30
2017-07-29T01:46:21.396Z,86.60
2017-07-29T01:48:48.855Z,86.60
2017-07-29T01:51:16.318Z,86.20
2017-07-29T01:53:44.590Z,86.30
2017-07-29T01:56:12.854Z,86.10
2017-07-29T01:58:40.419Z,86.10
2017-07-29T02:01:07.907Z,85.70
2017-07-29T02:03:35.375Z,85.50
2017-07-29T02:06:02.832Z,85.30
2017-07-29T02:08:30.352Z,84.90
2017-07-29T02:10:58.575Z,84.60
2017-07-29T02:13:26.061Z,84.50
2017-07-29T02:15:53.528Z,84.40
2017-07-29T02:18:20.984Z,84.60
2017-07-29T02:20:48.482Z,84.20
2017-07-29T02:23:15.953Z,83.90
2017-07-29T02:25:43.467Z,83.40
2017-07-29T02:28:10.923Z,83.30
2017-07-29T02:30:39.210Z,82.80
2017-07-29T02:33:07.439Z,82.70
2017-07-29T02:35:34.911Z,82.70
2017-07-29T02:38:02.394Z,82.30
2017-07-29T02:40:30.636Z,82.20
2017-07-29T02:42:58.124Z,82.10
2017-07-29T02:45:26.398Z,82.00
2017-07-29T02:47:54.671Z,82.00
2017-07-29T02:50:22.946Z,82.30
2017-07-29T02:52:51.219Z,82.60
2017-07-29T02:55:18.683Z,82.20
2017-07-29T02:57:46.968Z,82.00
2017-07-29T03:00:15.181Z,82.10
2017-07-29T03:02:42.652Z,82.00
2017-07-29T03:05:10.124Z,81.60
2017-07-29T03:07:37.588Z,81.60
2017-07-29T03:10:05.052Z,81.80
2017-07-29T03:12:32.522Z,82.00
2017-07-29T03:15:00.738Z,81.50
2017-07-29T03:17:28.222Z,81.30
2017-07-29T03:19:55.684Z,81.40
2017-07-29T03:22:23.929Z,81.30
2017-07-29T03:24:51.389Z,81.00
2017-07-29T03:27:18.868Z,80.60
2017-07-29T03:29:46.317Z,80.50
2017-07-29T03:32:13.780Z,81.10
2017-07-29T03:34:41.246Z,80.20
2017-07-29T03:37:08.709Z,80.10
2017-07-29T03:39:36.172Z,80.00
2017-07-29T03:42:04.412Z,80.20
2017-07-29T03:44:32.009Z,80.10
2017-07-29T03:46:59.465Z,79.60
2017-07-29T03:49:27.705Z,80.50
2017-07-29T03:51:55.153Z,79.70
2017-07-29T03:54:22.616Z,79.50
2017-07-29T03:56:50.080Z,79.70
2017-07-29T03:59:18.310Z,79.60
2017-07-29T04:01:45.772Z,79.60
2017-07-29T04:04:13.295Z,79.70
2017-07-29T04:06:41.519Z,79.40
2017-07-29T04:09:08.986Z,79.40
2017-07-29T04:11:36.454Z,79.90
2017-07-29T04:14:03.931Z,80.00
2017-07-29T04:16:31.378Z,79.70
2017-07-29T04:18:58.851Z,79.90
2017-07-29T04:21:27.095Z,79.60
2017-07-29T04:23:54.567Z,79.60
2017-07-29T04:26:22.042Z,79.90
2017-07-29T04:28:49.510Z,79.80
2017-07-29T04:31:16.981Z,79.60
2017-07-29T04:33:44.434Z,79.60
2017-07-29T04:36:12.000Z,79.50
2017-07-29T04:38:39.458Z,79.60
2017-07-29T04:41:06.933Z,79.40
2017-07-29T04:43:34.391Z,79.10
2017-07-29T04:46:01.849Z,79.30
2017-07-29T04:48:29.359Z,79.40
2017-07-29T04:50:57.627Z,79.10
2017-07-29T04:53:25.854Z,79.30
2017-07-29T04:55:53.322Z,79.30
2017-07-29T04:58:20.794Z,79.90
2017-07-29T05:00:48.252Z,80.10
2017-07-29T05:03:15.723Z,80.50
2017-07-29T05:05:43.188Z,81.40
2017-07-29T05:08:11.433Z,83.40
2017-07-29T05:10:38.916Z,83.30
2017-07-29T05:13:07.170Z,83.60
2017-07-29T05:15:34.647Z,83.60
2017-07-29T05:18:02.892Z,83.70
2017-07-29T05:20:30.348Z,83.60
2017-07-29T05:22:57.808Z,84.00
2017-07-29T05:25:25.276Z,84.50
2017-07-29T05:27:52.739Z,84.10
2017-07-29T05:30:20.186Z,85.00
2017-07-29T05:32:47.664Z,84.30
2017-07-29T05:35:15.908Z,85.80
2017-07-29T05:37:43.380Z,84.90
2017-07-29T05:40:10.871Z,85.30
2017-07-29T05:42:38.359Z,86.10
2017-07-29T05:45:05.829Z,86.60
2017-07-29T05:47:33.296Z,86.70
2017-07-29T05:50:00.760Z,86.80
2017-07-29T05:52:28.232Z,87.20
2017-07-29T05:54:56.468Z,86.30
2017-07-29T05:57:23.948Z,86.80
2017-07-29T05:59:51.455Z,86.50
2017-07-29T06:02:18.916Z,86.10
2017-07-29T06:04:46.384Z,86.10
2017-07-29T06:07:13.842Z,86.10
2017-07-29T06:09:41.354Z,85.60
2017-07-29T06:12:09.578Z,85.90
2017-07-29T06:14:37.049Z,85.80
2017-07-29T06:17:04.524Z,85.60
2017-07-29T06:19:31.992Z,85.80
2017-07-29T06:21:59.470Z,85.90
2017-07-29T06:24:26.959Z,86.00
2017-07-29T06:26:54.420Z,86.10
2017-07-29T06:29:21.888Z,86.90
2017-07-29T06:31:49.378Z,87.60
2017-07-29T06:34:17.607Z,89.20
2017-07-29T06:36:45.112Z,89.20
2017-07-29T06:39:13.639Z,89.60
2017-07-29T06:41:41.164Z,90.20
2017-07-29T06:44:08.667Z,90.70
2017-07-29T06:46:36.574Z,90.90
2017-07-29T06:49:04.076Z,91.20
2017-07-29T06:51:31.522Z,91.30
2017-07-29T06:53:58.991Z,91.50
2017-07-29T06:56:26.656Z,91.60
2017-07-29T06:58:54.191Z,91.70
2017-07-29T07:01:21.679Z,91.70
2017-07-29T07:03:49.435Z,91.80
2017-07-29T07:06:16.909Z,91.90
2017-07-29T07:08:44.398Z,91.90
2017-07-29T07:11:11.908Z,92.00
2017-07-29T07:13:39.377Z,92.20
2017-07-29T07:16:06.858Z,92.20
2017-07-29T07:18:34.359Z,92.60
2017-07-29T07:21:01.882Z,92.50
2017-07-29T07:23:29.448Z,92.50
2017-07-29T07:25:57.725Z,92.40
2017-07-29T07:28:25.204Z,92.30
2017-07-29T07:30:52.685Z,92.30
2017-07-29T07:33:20.146Z,92.30
2017-07-29T07:35:47.662Z,92.40
2017-07-29T07:38:15.923Z,92.80
2017-07-29T07:40:43.392Z,92.70
2017-07-29T07:43:10.860Z,92.50
2017-07-29T07:45:38.359Z,92.60
2017-07-29T07:48:05.899Z,92.80
2017-07-29T07:50:33.422Z,92.50
2017-07-29T07:53:01.648Z,92.70
2017-07-29T07:55:29.142Z,92.60
2017-07-29T07:57:56.701Z,92.50
2017-07-29T08:00:24.148Z,92.50
2017-07-29T08:02:51.611Z,92.80
2017-07-29T08:05:19.079Z,92.70
2017-07-29T08:07:46.621Z,92.50
2017-07-29T08:10:14.294Z,92.90
2017-07-29T08:12:42.544Z,92.60
2017-07-29T08:15:10.019Z,92.50
2017-07-29T08:17:37.486Z,92.50
2017-07-29T08:20:05.728Z,93.00
2017-07-29T08:22:33.192Z,93.00
2017-07-29T08:25:00.837Z,92.90
2017-07-29T08:27:28.304Z,92.90
2017-07-29T08:29:55.762Z,92.60
2017-07-29T08:32:23.219Z,92.60
2017-07-29T08:34:50.705Z,92.70
2017-07-29T08:37:18.278Z,92.60
2017-07-29T08:39:45.744Z,92.70
2017-07-29T08:42:13.215Z,93.00
2017-07-29T08:44:40.682Z,92.50
2017-07-29T09:51:17.836Z,85.50
2017-07-29T09:53:46.101Z,84.20
2017-07-29T09:56:13.600Z,84.10
2017-07-29T09:58:41.407Z,84.60
2017-07-29T10:01:08.873Z,84.50
2017-07-29T10:03:36.464Z,83.20
2017-07-29T10:06:03.991Z,82.90
2017-07-29T10:08:31.458Z,82.30
2017-07-29T10:10:59.684Z,85.30
2017-07-29T10:13:27.157Z,85.30
2017-07-29T10:15:54.634Z,85.90
2017-07-29T10:18:22.875Z,87.90
2017-07-29T10:20:50.355Z,87.10
2017-07-29T10:23:17.829Z,88.30
2017-07-29T10:25:46.055Z,89.40
2017-07-29T10:28:13.540Z,89.20
2017-07-29T10:30:41.006Z,87.80
2017-07-29T10:33:08.549Z,87.00
2017-07-29T10:35:36.142Z,83.70
2017-07-29T10:38:04.524Z,83.00
2017-07-29T10:40:32.068Z,83.00
2017-07-29T10:43:00.317Z,83.60
2017-07-29T10:45:27.813Z,83.50
2017-07-29T10:47:55.358Z,85.00
2017-07-29T10:50:22.815Z,80.40
2017-07-29T10:52:52.423Z,80.60
2017-07-29T10:55:20.754Z,80.60
2017-07-29T10:57:48.282Z,80.60
2017-07-29T11:00:15.862Z,79.50
2017-07-29T11:02:43.348Z,79.40
2017-07-29T11:05:10.832Z,76.30
2017-07-29T11:07:38.287Z,75.20
2017-07-29T11:10:05.736Z,75.20
2017-07-29T11:12:33.203Z,75.30
2017-07-29T11:15:01.432Z,72.00
2017-07-29T11:17:28.908Z,72.00
2017-07-29T11:19:56.391Z,71.00
2017-07-29T11:22:23.839Z,71.20
2017-07-29T11:24:51.295Z,73.50
2017-07-29T11:27:18.852Z,71.60
2017-07-29T11:29:46.322Z,70.50
2017-07-29T11:32:14.621Z,73.00
2017-07-29T11:34:42.441Z,73.00
2017-07-29T11:37:09.899Z,71.40
2017-07-29T11:39:37.355Z,69.40
2017-07-29T11:42:04.851Z,68.60
2017-07-29T11:44:32.376Z,69.60
2017-07-29T11:46:59.988Z,69.70
2017-07-29T11:49:27.446Z,70.50
2017-07-29T11:51:54.929Z,68.60
2017-07-29T11:54:22.403Z,68.10
2017-07-29T11:56:49.885Z,66.20
2017-07-29T11:59:17.348Z,66.30
2017-07-29T12:01:44.812Z,65.70
2017-07-29T12:04:12.327Z,65.40
2017-07-29T12:06:39.803Z,65.70
2017-07-29T12:09:07.269Z,63.80
2017-07-29T12:11:35.511Z,66.70
2017-07-29T12:14:02.986Z,66.60
2017-07-29T12:16:30.473Z,68.10
2017-07-29T12:18:57.994Z,66.00
2017-07-29T12:21:25.454Z,65.40
2017-07-29T12:23:52.932Z,64.10
2017-07-29T12:26:21.192Z,65.30
2017-07-29T12:28:49.469Z,66.60
2017-07-29T12:31:17.691Z,68.10
2017-07-29T12:33:45.504Z,67.30
2017-07-29T12:36:12.972Z,68.80
2017-07-29T12:38:41.208Z,69.70
2017-07-29T12:41:08.711Z,69.70
2017-07-29T12:43:36.181Z,69.60
2017-07-29T12:46:03.663Z,70.40
2017-07-29T12:48:31.143Z,71.00
2017-07-29T12:50:58.616Z,73.30
2017-07-29T12:53:26.070Z,74.90
2017-07-29T12:55:53.545Z,76.50
2017-07-29T12:58:21.011Z,77.00
2017-07-29T13:00:48.494Z,78.00
2017-07-29T13:03:15.980Z,79.50
2017-07-29T13:05:43.440Z,81.50
2017-07-29T13:08:10.892Z,82.10
2017-07-29T13:10:38.366Z,82.90
2017-07-29T13:13:05.821Z,84.40
2017-07-29T13:15:33.292Z,83.10
2017-07-29T13:18:01.525Z,83.80
2017-07-29T13:20:28.987Z,83.30
2017-07-29T13:22:56.482Z,83.50
2017-07-29T13:25:24.721Z,84.60
2017-07-29T13:27:52.175Z,84.60
2017-07-29T13:30:19.639Z,85.10
2017-07-29T13:32:47.109Z,86.40
2017-07-29T13:35:14.583Z,86.80
2017-07-29T13:37:42.803Z,88.00
2017-07-29T13:40:10.285Z,87.90
2017-07-29T13:42:37.750Z,88.10
2017-07-29T13:45:05.207Z,89.20
2017-07-29T13:47:32.671Z,89.70
2017-07-29T13:50:00.140Z,89.10
2017-07-29T13:52:28.394Z,89.30
2017-07-29T13:54:55.885Z,89.00
2017-07-29T13:57:23.357Z,89.50
2017-07-29T13:59:50.817Z,90.20
2017-07-29T14:02:18.330Z,90.60
2017-07-29T14:04:45.889Z,90.30
2017-07-29T14:07:13.359Z,90.00
2017-07-29T14:09:41.634Z,88.90
2017-07-29T14:12:09.868Z,89.20
2017-07-29T14:14:37.344Z,89.10
2017-07-29T14:17:04.931Z,88.80
2017-07-29T14:19:32.391Z,87.00
2017-07-29T14:21:59.853Z,86.60
2017-07-29T14:24:27.428Z,86.60
2017-07-29T14:26:54.893Z,85.50
2017-07-29T14:29:22.368Z,84.10
2017-07-29T14:31:50.175Z,84.30
2017-07-29T14:34:17.636Z,84.80
2017-07-29T14:36:45.116Z,84.20
2017-07-29T14:39:12.592Z,85.10
2017-07-29T14:41:40.100Z,86.00
2017-07-29T14:44:08.323Z,84.90
2017-07-29T14:46:35.904Z,84.80
2017-07-29T14:49:03.355Z,85.70
2017-07-29T14:51:30.811Z,85.10
2017-07-29T14:53:58.318Z,85.50
2017-07-29T14:56:26.675Z,86.40
2017-07-29T14:58:54.918Z,86.20
2017-07-29T15:01:22.399Z,86.10
2017-07-29T15:03:49.865Z,85.00
2017-07-29T15:06:17.415Z,84.70
2017-07-29T15:08:44.887Z,83.30
2017-07-29T15:11:13.120Z,83.10
2017-07-29T15:13:40.575Z,83.10
2017-07-29T15:16:08.052Z,83.20
2017-07-29T15:18:35.519Z,84.50
2017-07-29T15:21:03.100Z,85.30
2017-07-29T15:23:31.364Z,87.50
2017-07-29T15:25:59.599Z,88.20
2017-07-29T15:28:27.071Z,87.90
2017-07-29T15:30:54.884Z,88.50
2017-07-29T15:33:22.342Z,88.90
2017-07-29T15:35:49.864Z,89.90
2017-07-29T15:38:17.577Z,89.30
2017-07-29T15:40:45.083Z,89.20
2017-07-29T15:43:12.571Z,89.70
2017-07-29T15:45:40.048Z,89.90
2017-07-29T15:48:07.559Z,90.10
2017-07-29T15:50:35.789Z,90.60
2017-07-29T15:53:03.283Z,90.30
2017-07-29T15:55:30.740Z,90.30
2017-07-29T15:57:58.311Z,90.50
2017-07-29T16:00:26.583Z,90.90
2017-07-29T16:02:54.041Z,90.80
2017-07-29T16:05:22.272Z,90.90
2017-07-29T16:07:49.738Z,90.80
2017-07-29T16:10:17.233Z,91.00
2017-07-29T16:12:45.465Z,91.00
2017-07-29T16:15:12.935Z,91.00
2017-07-29T16:17:40.408Z,91.30
2017-07-29T16:20:07.866Z,91.20
2017-07-29T16:22:35.330Z,91.60
2017-07-29T16:25:03.608Z,91.70
2017-07-29T16:27:31.930Z,91.30
2017-07-29T16:29:59.466Z,91.30
2017-07-29T16:32:26.921Z,91.50
2017-07-29T16:34:54.452Z,91.60
2017-07-29T16:37:22.731Z,92.30
2017-07-29T16:39:50.185Z,91.90
2017-07-29T16:42:17.645Z,91.90
2017-07-29T16:44:45.107Z,92.20
2017-07-29T16:47:13.328Z,91.90
2017-07-29T16:49:40.823Z,91.90
2017-07-29T16:52:08.409Z,92.20
2017-07-29T16:54:36.659Z,92.30
2017-07-29T16:57:04.145Z,92.30
2017-07-29T16:59:32.403Z,91.90
2017-07-29T17:01:59.950Z,91.90
2017-07-29T17:04:27.503Z,91.80
2017-07-29T17:06:54.974Z,92.10
2017-07-29T17:09:23.239Z,92.00
2017-07-29T17:11:50.702Z,92.00
2017-07-29T17:14:18.971Z,91.80
2017-07-29T17:16:46.437Z,91.80
2017-07-29T17:19:13.992Z,91.70
2017-07-29T17:21:42.273Z,92.10
2017-07-29T17:24:10.537Z,92.00
2017-07-29T17:26:37.995Z,92.00
2017-07-29T17:29:05.475Z,91.90
2017-07-29T17:31:33.732Z,92.00
2017-07-29T17:34:02.011Z,91.60
2017-07-29T17:36:30.239Z,91.90
2017-07-29T17:38:57.690Z,91.80
2017-07-29T17:41:25.199Z,91.70
2017-07-29T17:43:52.781Z,91.80
2017-07-29T17:46:20.320Z,92.00
2017-07-29T17:48:48.563Z,91.90
2017-07-29T17:51:16.019Z,91.90
2017-07-29T17:53:43.475Z,92.30
2017-07-29T17:56:10.947Z,92.10
2017-07-29T17:58:38.413Z,91.90
2017-07-29T18:01:05.980Z,91.50
2017-07-29T18:03:34.253Z,91.70
2017-07-29T18:06:02.525Z,91.60
2017-07-29T18:08:30.766Z,91.60
2017-07-29T18:10:58.251Z,91.60
2017-07-29T18:13:25.807Z,91.70
2017-07-29T18:15:53.291Z,91.60
2017-07-29T18:18:21.513Z,91.70
2017-07-29T18:20:48.979Z,91.60
2017-07-29T18:23:16.451Z,91.80
2017-07-29T18:25:43.924Z,92.10
2017-07-29T18:28:12.174Z,92.40
2017-07-29T18:30:39.639Z,92.40
2017-07-29T18:33:07.105Z,92.80
2017-07-29T18:35:34.669Z,93.10
2017-07-29T18:38:02.891Z,93.50
2017-07-29T18:40:30.370Z,93.30
2017-07-29T18:42:57.836Z,93.30
2017-07-29T18:45:25.416Z,93.30
2017-07-29T18:47:53.687Z,93.20
2017-07-29T18:50:21.957Z,93.40
2017-07-29T18:52:49.425Z,93.50
2017-07-29T18:55:17.674Z,93.50
2017-07-29T18:57:45.251Z,93.50
2017-07-29T19:00:13.505Z,93.50
2017-07-29T19:02:41.080Z,93.30
2017-07-29T19:05:08.556Z,93.30
2017-07-29T19:07:36.869Z,93.50
2017-07-29T19:10:04.378Z,93.50
2017-07-29T19:12:32.636Z,93.50
2017-07-29T19:15:00.096Z,93.50
2017-07-29T19:17:27.776Z,93.50
2017-07-29T19:19:56.025Z,93.80
2017-07-29T19:22:23.508Z,93.70
2017-07-29T19:24:51.829Z,93.40
2017-07-29T19:27:19.321Z,93.40
2017-07-29T19:29:46.887Z,93.40
2017-07-29T19:32:14.535Z,93.50
2017-07-29T19:34:42.833Z,93.40
2017-07-29T19:37:10.307Z,93.40
2017-07-29T19:39:38.558Z,93.40
2017-07-29T19:42:06.007Z,93.30
2017-07-29T19:44:33.529Z,93.20
2017-07-29T19:47:01.019Z,93.10
2017-07-29T19:49:28.693Z,93.40
2017-07-29T19:51:56.166Z,93.40
2017-07-29T19:54:24.416Z,93.40
2017-07-29T19:56:51.912Z,93.40
2017-07-29T19:59:19.362Z,93.40
2017-07-29T20:01:46.923Z,93.20
2017-07-29T20:04:15.158Z,92.90
2017-07-29T20:06:42.623Z,92.90
2017-07-29T20:09:10.100Z,92.80
2017-07-29T20:11:38.510Z,93.10
2017-07-29T20:14:06.024Z,93.00
2017-07-29T20:16:34.275Z,92.90
2017-07-29T20:19:01.744Z,93.10
2017-07-29T20:21:29.205Z,93.30
2017-07-29T20:23:56.768Z,93.30
2017-07-29T20:26:24.343Z,93.40
2017-07-29T20:28:52.612Z,93.50
2017-07-29T20:31:20.894Z,93.70
2017-07-29T20:33:49.137Z,93.90
2017-07-29T20:36:16.608Z,93.70
2017-07-29T20:38:44.076Z,93.70
2017-07-29T20:41:12.301Z,93.80
2017-07-29T20:43:39.805Z,93.80
2017-07-29T20:46:08.080Z,93.90
2017-07-29T20:48:36.887Z,93.90
2017-07-29T20:51:04.411Z,93.90
2017-07-29T20:53:31.930Z,93.90
2017-07-29T20:55:59.431Z,94.10
2017-07-29T20:58:26.908Z,93.80
2017-07-29T21:00:55.256Z,93.70
2017-07-29T21:03:22.711Z,93.70
2017-07-29T21:05:50.179Z,93.70
2017-07-29T21:08:17.676Z,93.80
2017-07-29T21:10:45.200Z,93.90
2017-07-29T21:13:12.675Z,94.00
2017-07-29T21:15:40.915Z,93.90
2017-07-29T21:18:08.453Z,93.90
2017-07-29T21:20:35.927Z,94.00
2017-07-29T21:23:03.402Z,94.00
2017-07-29T21:25:30.859Z,93.80
2017-07-29T21:27:58.335Z,93.90
2017-07-29T21:30:27.408Z,93.80
2017-07-29T21:32:55.057Z,93.80
2017-07-29T21:35:22.556Z,93.70
2017-07-29T21:37:50.028Z,93.70
2017-07-29T21:40:17.543Z,93.60
2017-07-29T21:42:45.106Z,93.60
2017-07-29T21:45:12.614Z,93.50
2017-07-29T21:47:40.125Z,93.40
2017-07-29T21:50:07.602Z,93.50
2017-07-29T21:52:35.110Z,93.50
2017-07-29T21:55:02.616Z,93.50
2017-07-29T21:57:30.545Z,93.50
2017-07-29T21:59:58.011Z,93.70
2017-07-29T22:02:25.500Z,93.60
2017-07-29T22:04:53.248Z,93.50
2017-07-29T22:07:21.510Z,93.40
2017-07-29T22:09:49.740Z,93.50
2017-07-29T22:12:17.225Z,93.50
2017-07-29T22:14:44.707Z,93.70
2017-07-29T22:17:12.967Z,93.80
2017-07-29T22:19:40.435Z,93.80
2017-07-29T22:22:08.659Z,93.70
2017-07-29T22:24:36.182Z,93.70
2017-07-29T22:27:03.784Z,93.80
2017-07-29T22:29:31.276Z,93.70
2017-07-29T22:31:58.756Z,93.70
2017-07-29T22:34:27.016Z,93.90
2017-07-29T22:36:55.265Z,93.80
2017-07-29T22:39:22.725Z,93.80
2017-07-29T22:41:50.211Z,93.80
2017-07-29T22:44:18.482Z,93.60
2017-07-29T22:46:46.755Z,93.70
2017-07-29T22:49:14.291Z,93.70
2017-07-29T22:51:41.750Z,93.80
2017-07-29T22:54:09.347Z,93.80
2017-07-29T22:56:36.820Z,93.90
2017-07-29T22:59:04.284Z,93.80
2017-07-29T23:01:31.754Z,93.80
2017-07-29T23:03:59.243Z,94.00
2017-07-29T23:06:26.809Z,93.90
2017-07-29T23:08:54.275Z,93.80
2017-07-29T23:11:22.547Z,94.00
2017-07-29T23:13:50.819Z,93.90
2017-07-29T23:16:18.284Z,93.90
2017-07-29T23:18:46.550Z,94.10
2017-07-29T23:21:14.020Z,94.10
2017-07-29T23:23:42.289Z,94.10
2017-07-29T23:26:10.608Z,93.90
2017-07-29T23:28:38.056Z,94.10
2017-07-29T23:31:05.576Z,94.00
2017-07-29T23:33:33.842Z,94.10
2017-07-29T23:36:01.412Z,94.20
2017-07-29T23:38:28.871Z,94.20
2017-07-29T23:40:57.104Z,94.10
2017-07-29T23:43:24.563Z,94.10
2017-07-29T23:45:52.031Z,94.10
2017-07-29T23:48:19.612Z,94.10
2017-07-29T23:50:47.080Z,94.00
2017-07-29T23:53:15.308Z,94.20
2017-07-29T23:55:42.797Z,93.90
2017-07-29T23:58:10.267Z,93.80
